Terminal Aerodrome Forecast
Issued by NWS Albuquerque, NM

Home | Current Version | Previous Version | Text Only | Print | Product List | Glossary On
Versions: 1 2 3 4 5 6 7 8 9 10 11 12 13 14 15
259
FTUS45 KABQ 231135
TAFABQ
TAF
KABQ 231135Z 2312/2412 02005KT P6SM SKC
     FM231800 18007KT P6SM FEW100
     FM232000 19015G23KT P6SM SCT120
     FM240400 16006KT P6SM FEW120=

USA.gov is the U.S. government's official web portal to all federal, state and local government web resources and services.